Terminal Aerodrome Forecast
Issued by NWS

Home | Current Version | Previous Version | Text Only | Print | Product List | Glossary Off
Versions: 1 2 3 4 5 6 7 8 9 10 11 12 13 14 15 16

000
FTUS43 KPAH 252156 AAA
TAFOWB
TAF AMD
KOWB 252156Z 2522/2618 18010G17KT P6SM -SHRA BKN060
     FM260000 17009KT 6SM -SHRA SCT030 BKN090
     FM261100 20009KT P6SM SCT030 BKN070=

USA.gov is the U.S. government's official web portal to all federal, state and local government web resources and services.